Time;durP1;ratioP1;P1;durP2;ratioP2;P2;SDS_P1;SDS_P2;PMS_P1;PMS_P2;Temp;Humidity;BMP_temperature;BMP_pressure;BME280_temperature;BME280_humidity;BME280_pressure;Samples;Min_cycle;Max_cycle;Signal;HPM_P1;HPM_P2
2021/10/15 00:01:53;;;;;;;17.88;2.53;;;;;;;;;;5027070;28;20028;-46
2021/10/15 00:04:20;;;;;;;13.90;2.60;;;;;;;;;;5028677;28;20072;-43
2021/10/15 00:06:47;;;;;;;19.27;2.67;;;;;;;;;;5029244;28;20025;-44
2021/10/15 00:09:14;;;;;;;17.55;2.58;;;;;;;;;;5024057;28;20073;-46
2021/10/15 00:11:43;;;;;;;16.25;2.28;;;;;;;;;;5028345;28;20068;-41
2021/10/15 00:14:10;;;;;;;20.02;2.60;;;;;;;;;;5026056;28;20547;-43
2021/10/15 00:16:37;;;;;;;24.40;2.30;;;;;;;;;;5025877;28;20030;-47
2021/10/15 00:19:05;;;;;;;24.10;2.40;;;;;;;;;;5011315;28;20443;-45
2021/10/15 00:21:32;;;;;;;13.10;2.13;;;;;;;;;;5027621;28;20029;-54
2021/10/15 00:23:59;;;;;;;15.65;2.75;;;;;;;;;;5027924;28;20037;-48
2021/10/15 00:26:26;;;;;;;17.60;3.17;;;;;;;;;;5028907;28;20496;-49
2021/10/15 00:28:53;;;;;;;19.75;2.58;;;;;;;;;;5024993;28;20033;-42
2021/10/15 00:31:20;;;;;;;30.83;3.10;;;;;;;;;;5025668;28;20122;-44
2021/10/15 00:33:47;;;;;;;18.65;3.03;;;;;;;;;;5026808;28;20017;-46
2021/10/15 00:36:14;;;;;;;10.77;1.98;;;;;;;;;;5026479;28;20600;-45
2021/10/15 00:38:41;;;;;;;17.52;3.08;;;;;;;;;;5027705;28;20037;-46
2021/10/15 00:41:08;;;;;;;18.27;2.55;;;;;;;;;;5028142;28;20599;-45
2021/10/15 00:43:35;;;;;;;14.23;2.80;;;;;;;;;;5026134;28;20034;-42
2021/10/15 00:46:02;;;;;;;25.27;3.30;;;;;;;;;;5026692;28;20489;-54
2021/10/15 00:48:29;;;;;;;23.83;3.63;;;;;;;;;;5027864;28;20025;-43
2021/10/15 00:50:56;;;;;;;44.30;9.25;;;;;;;;;;5025520;28;20030;-46
2021/10/15 00:53:23;;;;;;;40.58;8.45;;;;;;;;;;5025930;28;20021;-46
2021/10/15 00:55:50;;;;;;;62.05;13.15;;;;;;;;;;5027369;28;20025;-44
2021/10/15 00:58:17;;;;;;;76.88;16.02;;;;;;;;;;5025202;28;20025;-50
2021/10/15 01:00:44;;;;;;;99.25;19.92;;;;;;;;;;5024535;28;20025;-43
2021/10/15 01:03:11;;;;;;;97.63;20.50;;;;;;;;;;5029679;28;20362;-42
2021/10/15 01:05:39;;;;;;;107.47;20.55;;;;;;;;;;5025722;28;20033;-46
2021/10/15 01:08:06;;;;;;;91.93;19.20;;;;;;;;;;5021808;28;20026;-46
2021/10/15 01:10:33;;;;;;;99.32;20.30;;;;;;;;;;5025710;28;20131;-43
2021/10/15 01:13:00;;;;;;;96.18;19.80;;;;;;;;;;5010417;28;20103;-48
2021/10/15 01:15:28;;;;;;;84.97;18.77;;;;;;;;;;5024782;28;20027;-43
2021/10/15 01:17:55;;;;;;;86.15;18.15;;;;;;;;;;5027635;28;20026;-55
2021/10/15 01:20:22;;;;;;;87.90;17.90;;;;;;;;;;5026324;28;20026;-43
2021/10/15 01:22:49;;;;;;;73.07;16.85;;;;;;;;;;5026091;28;20022;-44
2021/10/15 01:25:16;;;;;;;67.32;16.52;;;;;;;;;;5026339;28;20029;-46
2021/10/15 01:27:43;;;;;;;80.45;17.50;;;;;;;;;;5024947;28;20037;-51
2021/10/15 01:30:11;;;;;;;82.90;17.30;;;;;;;;;;5026012;28;20478;-44
2021/10/15 01:32:38;;;;;;;79.53;16.42;;;;;;;;;;5016308;28;20025;-51
2021/10/15 01:35:05;;;;;;;59.17;15.55;;;;;;;;;;5024195;28;20150;-48
2021/10/15 01:37:33;;;;;;;66.88;15.70;;;;;;;;;;5027060;28;20013;-45
2021/10/15 01:40:00;;;;;;;74.32;16.10;;;;;;;;;;5026100;28;20034;-50
2021/10/15 01:45:12;;;;;;;57.53;14.10;;;;;;;;;;5024767;28;20060;-44
2021/10/15 01:47:39;;;;;;;82.78;15.98;;;;;;;;;;5024209;28;20041;-52
2021/10/15 01:50:06;;;;;;;59.47;13.80;;;;;;;;;;5028689;28;20018;-48
2021/10/15 01:52:33;;;;;;;60.05;13.48;;;;;;;;;;5032212;28;20024;-47
2021/10/15 01:55:00;;;;;;;59.75;13.27;;;;;;;;;;5031197;28;20498;-51
2021/10/15 01:57:27;;;;;;;56.33;13.88;;;;;;;;;;5031110;28;20031;-50
2021/10/15 01:59:54;;;;;;;55.55;12.85;;;;;;;;;;5027483;28;20037;-46
2021/10/15 02:02:21;;;;;;;52.35;13.10;;;;;;;;;;5032857;28;20018;-44
2021/10/15 02:04:48;;;;;;;47.35;12.40;;;;;;;;;;5030646;28;20084;-48
2021/10/15 02:07:15;;;;;;;50.08;11.43;;;;;;;;;;5031291;28;20024;-46
2021/10/15 02:09:42;;;;;;;47.95;11.90;;;;;;;;;;5031254;28;20041;-45
2021/10/15 02:12:09;;;;;;;50.80;13.05;;;;;;;;;;5030835;28;20107;-47
2021/10/15 02:14:36;;;;;;;50.88;12.23;;;;;;;;;;5031174;28;20022;-45
2021/10/15 02:17:04;;;;;;;54.63;11.23;;;;;;;;;;5029736;28;20432;-44
2021/10/15 02:19:31;;;;;;;43.55;11.38;;;;;;;;;;5032484;28;20038;-45
2021/10/15 02:21:58;;;;;;;40.83;10.57;;;;;;;;;;5031835;28;20017;-44
2021/10/15 02:24:25;;;;;;;41.47;10.73;;;;;;;;;;5030190;28;20041;-44
2021/10/15 02:26:52;;;;;;;46.05;10.25;;;;;;;;;;5032755;28;20116;-48
2021/10/15 02:29:19;;;;;;;44.30;11.50;;;;;;;;;;5032275;28;20030;-50
2021/10/15 02:31:47;;;;;;;44.63;10.68;;;;;;;;;;5012256;28;20028;-46
2021/10/15 02:34:14;;;;;;;42.17;10.55;;;;;;;;;;5034192;28;20021;-46
2021/10/15 02:36:41;;;;;;;46.97;10.15;;;;;;;;;;5033772;28;20450;-47
2021/10/15 02:39:08;;;;;;;41.65;10.10;;;;;;;;;;5034354;28;20400;-47
2021/10/15 02:41:37;;;;;;;39.83;9.90;;;;;;;;;;5028469;28;20093;-50
2021/10/15 02:44:09;;;;;;;32.38;9.35;;;;;;;;;;5032992;28;20576;-45
2021/10/15 02:46:36;;;;;;;30.13;9.03;;;;;;;;;;5033484;28;20017;-50
2021/10/15 02:49:03;;;;;;;31.95;8.82;;;;;;;;;;5033630;28;20480;-50
2021/10/15 02:51:31;;;;;;;30.42;8.75;;;;;;;;;;5033035;28;20374;-44
2021/10/15 02:53:58;;;;;;;28.23;9.13;;;;;;;;;;5034052;28;20580;-48
2021/10/15 02:56:25;;;;;;;30.55;8.95;;;;;;;;;;5033359;28;20370;-45
2021/10/15 02:58:52;;;;;;;31.20;8.70;;;;;;;;;;5033571;28;20045;-44
2021/10/15 03:01:19;;;;;;;31.40;8.65;;;;;;;;;;5032104;28;20025;-44
2021/10/15 03:03:46;;;;;;;34.17;7.25;;;;;;;;;;5033502;28;20443;-44
2021/10/15 03:06:13;;;;;;;28.63;7.80;;;;;;;;;;5033130;28;20018;-44
2021/10/15 03:08:40;;;;;;;28.50;8.13;;;;;;;;;;5033399;28;20044;-44
2021/10/15 03:11:07;;;;;;;30.52;8.05;;;;;;;;;;5032505;28;20499;-44
2021/10/15 03:13:35;;;;;;;29.92;7.75;;;;;;;;;;5033067;28;20436;-44
2021/10/15 03:16:02;;;;;;;29.83;8.15;;;;;;;;;;5031714;28;20113;-45
2021/10/15 03:18:29;;;;;;;29.60;7.57;;;;;;;;;;5032278;28;20488;-50
2021/10/15 03:20:56;;;;;;;23.80;6.82;;;;;;;;;;5032102;28;20075;-44
2021/10/15 03:23:23;;;;;;;27.08;8.25;;;;;;;;;;5032080;28;20472;-46
2021/10/15 03:25:50;;;;;;;26.55;7.22;;;;;;;;;;5014461;28;20376;-45
2021/10/15 03:28:17;;;;;;;23.00;6.80;;;;;;;;;;5031716;28;20461;-45
2021/10/15 03:30:44;;;;;;;27.10;6.95;;;;;;;;;;5032256;28;20481;-47
2021/10/15 03:33:11;;;;;;;25.88;7.15;;;;;;;;;;5031317;28;20493;-50
2021/10/15 03:35:38;;;;;;;29.13;7.03;;;;;;;;;;5031966;28;20051;-48
2021/10/15 03:38:05;;;;;;;25.75;6.95;;;;;;;;;;5028857;28;20029;-48
2021/10/15 03:40:32;;;;;;;25.52;6.95;;;;;;;;;;5031876;28;20056;-50
2021/10/15 03:42:59;;;;;;;27.60;6.40;;;;;;;;;;5028374;28;20024;-46
2021/10/15 03:45:26;;;;;;;24.58;7.03;;;;;;;;;;5032218;28;20079;-46
2021/10/15 03:47:54;;;;;;;21.95;5.90;;;;;;;;;;5031080;28;20025;-45
2021/10/15 03:50:21;;;;;;;19.42;5.82;;;;;;;;;;5031808;28;20025;-49
2021/10/15 03:52:48;;;;;;;20.73;6.35;;;;;;;;;;5031075;28;20025;-44
2021/10/15 03:55:15;;;;;;;22.65;6.53;;;;;;;;;;5030952;28;20033;-47
2021/10/15 03:57:43;;;;;;;22.30;6.22;;;;;;;;;;5031270;28;20029;-49
2021/10/15 04:00:11;;;;;;;19.42;5.95;;;;;;;;;;5031759;28;21188;-49
2021/10/15 04:02:42;;;;;;;17.80;6.00;;;;;;;;;;5031441;28;20101;-49
2021/10/15 04:05:09;;;;;;;17.40;5.55;;;;;;;;;;5031042;28;20031;-46
2021/10/15 04:07:37;;;;;;;24.02;7.20;;;;;;;;;;5010862;28;20018;-47
2021/10/15 04:10:05;;;;;;;17.50;6.10;;;;;;;;;;5027978;28;20132;-49
2021/10/15 04:12:32;;;;;;;18.40;5.60;;;;;;;;;;5030864;28;20021;-48
2021/10/15 04:14:59;;;;;;;17.95;5.28;;;;;;;;;;5030515;28;20092;-51
2021/10/15 04:17:27;;;;;;;19.88;5.40;;;;;;;;;;5031474;28;20087;-52
2021/10/15 04:19:54;;;;;;;18.45;4.88;;;;;;;;;;5031610;28;20038;-49
2021/10/15 04:22:21;;;;;;;19.98;5.38;;;;;;;;;;5031987;28;20383;-50
2021/10/15 04:24:48;;;;;;;17.15;5.13;;;;;;;;;;5031019;28;20496;-49
2021/10/15 04:27:15;;;;;;;21.02;5.57;;;;;;;;;;5031918;28;20029;-50
2021/10/15 04:29:42;;;;;;;24.60;6.50;;;;;;;;;;5031552;28;20048;-49
2021/10/15 04:32:09;;;;;;;15.68;4.57;;;;;;;;;;5032099;28;20029;-44
2021/10/15 04:34:36;;;;;;;16.95;5.85;;;;;;;;;;5031087;28;20061;-44
2021/10/15 04:37:04;;;;;;;18.38;5.70;;;;;;;;;;5031641;28;20067;-45
2021/10/15 04:39:31;;;;;;;16.30;4.78;;;;;;;;;;5031509;28;20365;-43
2021/10/15 04:41:58;;;;;;;17.35;5.00;;;;;;;;;;5031686;28;20472;-45
2021/10/15 04:44:25;;;;;;;14.52;4.93;;;;;;;;;;5031388;28;20057;-53
2021/10/15 04:46:52;;;;;;;14.07;4.93;;;;;;;;;;5031273;28;20014;-48
2021/10/15 04:49:19;;;;;;;13.38;4.63;;;;;;;;;;5031603;28;20030;-44
2021/10/15 04:51:46;;;;;;;14.60;5.13;;;;;;;;;;5031250;28;20493;-50
2021/10/15 04:54:13;;;;;;;12.75;4.63;;;;;;;;;;5031475;28;20048;-51
2021/10/15 04:56:40;;;;;;;18.65;4.85;;;;;;;;;;5031044;28;20028;-51
2021/10/15 04:59:07;;;;;;;20.38;4.93;;;;;;;;;;5031227;28;20069;-48
2021/10/15 05:01:34;;;;;;;14.35;4.70;;;;;;;;;;5031360;28;20057;-50
2021/10/15 05:04:01;;;;;;;14.90;4.80;;;;;;;;;;5031401;28;20105;-52
2021/10/15 05:06:28;;;;;;;14.05;4.15;;;;;;;;;;5030903;28;20029;-50
2021/10/15 05:09:12;;;;;;;17.92;4.35;;;;;;;;;;5031201;28;20114;-51
2021/10/15 05:11:48;;;;;;;13.18;4.38;;;;;;;;;;5030815;28;20423;-50
2021/10/15 05:14:15;;;;;;;13.23;4.07;;;;;;;;;;5031482;28;20086;-49
2021/10/15 05:16:42;;;;;;;10.60;4.20;;;;;;;;;;5030968;28;20034;-50
2021/10/15 05:19:09;;;;;;;14.00;3.92;;;;;;;;;;5031111;28;20116;-50
2021/10/15 05:21:38;;;;;;;9.13;3.55;;;;;;;;;;5031019;28;20033;-47
2021/10/15 05:24:05;;;;;;;13.63;4.43;;;;;;;;;;5031430;28;20025;-51
2021/10/15 05:26:32;;;;;;;13.63;4.13;;;;;;;;;;5034919;28;20022;-46
2021/10/15 05:28:59;;;;;;;13.38;4.10;;;;;;;;;;5035216;28;20032;-45
2021/10/15 05:31:26;;;;;;;11.27;3.80;;;;;;;;;;5035254;28;20020;-48
2021/10/15 05:33:54;;;;;;;11.05;3.45;;;;;;;;;;5034472;28;20053;-47
2021/10/15 05:36:21;;;;;;;10.27;3.47;;;;;;;;;;5035252;28;20104;-43
2021/10/15 05:38:48;;;;;;;9.43;3.75;;;;;;;;;;5034742;28;20021;-49
2021/10/15 05:41:15;;;;;;;14.30;3.83;;;;;;;;;;5034614;28;20029;-52
2021/10/15 05:43:42;;;;;;;11.10;3.25;;;;;;;;;;5035252;28;20018;-44
2021/10/15 05:46:09;;;;;;;14.15;4.07;;;;;;;;;;5035090;28;20063;-45
2021/10/15 05:48:36;;;;;;;13.50;3.78;;;;;;;;;;5035181;28;20026;-48
2021/10/15 05:51:03;;;;;;;12.25;3.45;;;;;;;;;;5034937;28;20036;-47
2021/10/15 05:53:33;;;;;;;10.35;3.13;;;;;;;;;;5035555;28;20028;-45
2021/10/15 05:56:17;;;;;;;11.50;3.53;;;;;;;;;;5034745;28;20018;-45
2021/10/15 05:58:51;;;;;;;10.00;3.30;;;;;;;;;;5035513;28;20037;-44
2021/10/15 06:01:22;;;;;;;11.13;3.60;;;;;;;;;;5035026;28;20030;-47
2021/10/15 06:14:35;;;;;;;11.77;2.90;;;;;;;;;;5035050;28;20045;-46
2021/10/15 06:17:08;;;;;;;11.15;2.83;;;;;;;;;;5034076;28;20125;-45
2021/10/15 06:19:44;;;;;;;8.43;2.90;;;;;;;;;;5035030;28;20413;-45
2021/10/15 06:22:11;;;;;;;9.80;3.30;;;;;;;;;;5016956;28;20076;-44
2021/10/15 06:24:38;;;;;;;8.95;3.28;;;;;;;;;;5033977;28;20169;-45
2021/10/15 06:27:05;;;;;;;10.70;2.88;;;;;;;;;;5034524;28;20022;-45
2021/10/15 06:29:32;;;;;;;8.88;3.03;;;;;;;;;;5034484;28;20018;-43
2021/10/15 06:31:59;;;;;;;8.25;2.67;;;;;;;;;;5034159;28;20028;-43
2021/10/15 06:34:27;;;;;;;7.20;2.72;;;;;;;;;;5034271;28;20386;-44
2021/10/15 06:36:53;;;;;;;7.40;2.70;;;;;;;;;;5034327;28;20599;-43
2021/10/15 06:39:20;;;;;;;9.63;2.75;;;;;;;;;;5033861;28;20393;-45
2021/10/15 06:41:48;;;;;;;11.02;2.95;;;;;;;;;;5034045;28;20508;-47
2021/10/15 06:44:15;;;;;;;11.55;3.17;;;;;;;;;;5034108;28;20109;-49
2021/10/15 06:46:42;;;;;;;9.13;2.47;;;;;;;;;;5034161;28;20428;-50
2021/10/15 06:49:12;;;;;;;10.48;2.25;;;;;;;;;;5033370;28;20025;-45
2021/10/15 06:51:39;;;;;;;7.40;2.75;;;;;;;;;;5034405;28;20029;-50
2021/10/15 06:54:06;;;;;;;6.85;2.15;;;;;;;;;;5034221;28;20035;-46
2021/10/15 06:56:33;;;;;;;10.00;2.63;;;;;;;;;;5033132;28;20389;-44
2021/10/15 06:59:00;;;;;;;8.27;2.78;;;;;;;;;;5033758;28;20436;-47
2021/10/15 07:01:27;;;;;;;6.53;2.35;;;;;;;;;;5033388;28;20112;-43
2021/10/15 07:03:54;;;;;;;7.05;2.33;;;;;;;;;;5033832;28;20381;-46
2021/10/15 07:06:21;;;;;;;6.75;1.98;;;;;;;;;;5033251;28;20048;-46
2021/10/15 07:08:48;;;;;;;10.90;2.90;;;;;;;;;;5033362;28;20021;-45
2021/10/15 07:11:15;;;;;;;5.57;1.88;;;;;;;;;;5033025;28;20047;-44
2021/10/15 07:13:43;;;;;;;8.65;2.40;;;;;;;;;;5025656;28;20408;-44
2021/10/15 07:16:10;;;;;;;8.93;2.78;;;;;;;;;;5021739;28;20457;-48
2021/10/15 07:18:42;;;;;;;8.68;2.70;;;;;;;;;;5033115;28;20029;-44
2021/10/15 07:21:10;;;;;;;10.57;2.65;;;;;;;;;;5032515;28;20025;-53
2021/10/15 07:23:37;;;;;;;4.00;1.77;;;;;;;;;;5033568;28;20108;-50
2021/10/15 07:26:04;;;;;;;6.28;2.20;;;;;;;;;;5032455;28;20416;-50
2021/10/15 07:28:31;;;;;;;5.45;1.63;;;;;;;;;;5033059;28;20028;-50
2021/10/15 07:30:59;;;;;;;5.65;2.10;;;;;;;;;;5033177;28;20025;-49
2021/10/15 07:33:26;;;;;;;6.57;2.22;;;;;;;;;;5032516;28;20472;-46
2021/10/15 07:35:53;;;;;;;5.30;2.10;;;;;;;;;;5032737;28;20041;-49
2021/10/15 07:38:20;;;;;;;6.82;2.20;;;;;;;;;;5032389;28;20052;-52
2021/10/15 07:40:47;;;;;;;5.18;1.90;;;;;;;;;;5032722;28;20473;-48
2021/10/15 07:43:15;;;;;;;6.30;2.03;;;;;;;;;;5032369;28;20543;-45
2021/10/15 07:45:42;;;;;;;6.20;1.90;;;;;;;;;;5032943;28;20461;-47
2021/10/15 07:48:09;;;;;;;8.73;1.70;;;;;;;;;;5031986;28;20021;-46
2021/10/15 07:50:36;;;;;;;10.63;2.00;;;;;;;;;;5032703;28;20030;-45
2021/10/15 07:53:03;;;;;;;6.13;1.85;;;;;;;;;;5032466;28;20527;-46
2021/10/15 07:55:30;;;;;;;6.70;2.10;;;;;;;;;;5032487;28;20022;-47
2021/10/15 07:57:57;;;;;;;6.40;1.85;;;;;;;;;;5031948;28;20040;-47
2021/10/15 08:00:24;;;;;;;6.63;1.92;;;;;;;;;;5032918;28;20037;-46
2021/10/15 08:02:53;;;;;;;7.32;1.75;;;;;;;;;;5032228;28;20385;-47
2021/10/15 08:05:20;;;;;;;6.93;1.90;;;;;;;;;;5032433;28;20076;-47
2021/10/15 08:07:47;;;;;;;6.55;1.52;;;;;;;;;;5031763;28;20025;-46
2021/10/15 08:10:14;;;;;;;7.00;1.65;;;;;;;;;;5031876;28;20053;-44
2021/10/15 08:12:42;;;;;;;6.05;1.83;;;;;;;;;;5032252;28;20034;-48
2021/10/15 08:15:11;;;;;;;6.30;1.73;;;;;;;;;;5032024;28;20412;-45
2021/10/15 08:17:38;;;;;;;9.65;1.98;;;;;;;;;;5032115;28;20017;-48
2021/10/15 08:20:05;;;;;;;4.35;1.30;;;;;;;;;;5032077;28;20392;-50
2021/10/15 08:22:32;;;;;;;7.20;1.70;;;;;;;;;;5032445;28;20021;-46
2021/10/15 08:24:59;;;;;;;19.88;2.03;;;;;;;;;;5031538;28;20501;-49
2021/10/15 08:27:26;;;;;;;8.95;1.90;;;;;;;;;;5031809;28;20060;-51
2021/10/15 08:29:53;;;;;;;6.68;1.70;;;;;;;;;;5031497;28;20078;-46
2021/10/15 08:32:20;;;;;;;6.63;1.67;;;;;;;;;;5031955;28;20079;-45
2021/10/15 08:34:47;;;;;;;6.13;1.60;;;;;;;;;;5031340;28;20032;-44
2021/10/15 08:37:14;;;;;;;5.15;1.80;;;;;;;;;;5031466;28;20044;-44
2021/10/15 08:39:41;;;;;;;4.97;1.75;;;;;;;;;;5031439;28;20033;-43
2021/10/15 08:42:10;;;;;;;4.90;1.50;;;;;;;;;;5031916;28;20024;-45
2021/10/15 08:44:38;;;;;;;6.63;1.73;;;;;;;;;;5031579;28;20033;-44
2021/10/15 08:47:06;;;;;;;3.63;1.27;;;;;;;;;;5013983;28;20029;-44
2021/10/15 08:49:34;;;;;;;5.47;1.40;;;;;;;;;;5031966;28;20025;-47
2021/10/15 08:52:01;;;;;;;3.88;1.13;;;;;;;;;;5031419;28;20020;-47
2021/10/15 08:54:28;;;;;;;2.15;1.30;;;;;;;;;;5031314;28;20056;-47
2021/10/15 08:56:59;;;;;;;8.93;1.55;;;;;;;;;;5030686;28;20540;-46
2021/10/15 08:59:38;;;;;;;5.32;1.27;;;;;;;;;;5030722;28;20033;-46
2021/10/15 09:02:15;;;;;;;3.97;1.30;;;;;;;;;;5031223;28;20026;-45
2021/10/15 09:05:00;;;;;;;5.07;1.67;;;;;;;;;;5031731;28;20488;-48
2021/10/15 09:07:28;;;;;;;6.32;1.17;;;;;;;;;;5031095;28;20043;-45
2021/10/15 09:10:27;;;;;;;5.55;1.50;;;;;;;;;;5031238;28;20058;-49
2021/10/15 09:12:57;;;;;;;5.53;1.60;;;;;;;;;;4987585;28;20061;-47
2021/10/15 09:15:37;;;;;;;5.38;1.30;;;;;;;;;;5031243;28;20029;-50
2021/10/15 09:18:15;;;;;;;4.75;1.45;;;;;;;;;;5030735;28;20025;-45
2021/10/15 09:20:42;;;;;;;4.75;1.40;;;;;;;;;;5031379;28;20036;-48
2021/10/15 09:23:10;;;;;;;3.63;1.05;;;;;;;;;;5030854;28;20025;-47
2021/10/15 09:25:41;;;;;;;3.70;1.40;;;;;;;;;;5031480;28;20045;-49
2021/10/15 09:28:19;;;;;;;10.13;1.27;;;;;;;;;;5030800;28;20030;-45
2021/10/15 09:30:48;;;;;;;3.90;1.20;;;;;;;;;;5031357;28;20018;-49
2021/10/15 09:33:16;;;;;;;5.53;1.50;;;;;;;;;;5030639;28;20053;-46
2021/10/15 09:35:43;;;;;;;6.82;1.10;;;;;;;;;;5031544;28;20017;-50
2021/10/15 09:38:11;;;;;;;3.50;1.13;;;;;;;;;;5030641;28;20033;-47
2021/10/15 09:40:38;;;;;;;5.13;1.00;;;;;;;;;;5031236;28;20022;-51
2021/10/15 09:43:09;;;;;;;3.60;1.15;;;;;;;;;;5027748;28;20021;-48
2021/10/15 09:45:56;;;;;;;2.73;1.00;;;;;;;;;;5028152;28;20018;-53
2021/10/15 09:48:38;;;;;;;3.83;1.13;;;;;;;;;;5029820;28;20101;-52
2021/10/15 09:51:20;;;;;;;8.32;1.10;;;;;;;;;;5030086;28;20049;-52
2021/10/15 09:54:05;;;;;;;6.65;1.55;;;;;;;;;;5029684;28;20079;-53
2021/10/15 09:56:41;;;;;;;3.38;1.33;;;;;;;;;;5030084;28;20021;-44
2021/10/15 09:59:09;;;;;;;5.15;1.10;;;;;;;;;;5029649;28;20036;-44
2021/10/15 10:01:41;;;;;;;3.45;0.98;;;;;;;;;;5030480;28;20481;-51
2021/10/15 10:04:08;;;;;;;;;;;;;;;;;;5031081;28;20033;-44
2021/10/15 10:06:36;;;;;;;6.55;1.02;;;;;;;;;;5031326;28;19996;-49
2021/10/15 10:09:04;;;;;;;2.28;1.00;;;;;;;;;;5031867;28;20046;-48
2021/10/15 10:11:31;;;;;;;4.47;1.00;;;;;;;;;;5034236;28;20025;-52
2021/10/15 10:13:58;;;;;;;4.43;0.93;;;;;;;;;;5035352;28;20079;-56
2021/10/15 10:16:26;;;;;;;2.35;0.95;;;;;;;;;;5035001;28;20620;-49
2021/10/15 10:18:56;;;;;;;8.88;1.30;;;;;;;;;;5034998;28;20042;-46
2021/10/15 10:21:26;;;;;;;5.25;1.00;;;;;;;;;;5033948;28;20481;-52
2021/10/15 10:24:06;;;;;;;2.25;0.90;;;;;;;;;;5034470;28;20396;-46
2021/10/15 10:26:50;;;;;;;2.38;0.98;;;;;;;;;;5034151;28;20021;-49
2021/10/15 10:29:18;;;;;;;3.40;1.30;;;;;;;;;;5034387;28;20033;-47
2021/10/15 10:31:45;;;;;;;6.43;0.88;;;;;;;;;;5033927;28;20025;-44
2021/10/15 10:34:16;;;;;;;5.50;1.08;;;;;;;;;;5034452;28;20068;-47
2021/10/15 10:36:44;;;;;;;7.72;1.80;;;;;;;;;;5034133;28;20475;-53
2021/10/15 10:39:20;;;;;;;2.88;0.80;;;;;;;;;;5034369;28;20392;-48
2021/10/15 10:42:05;;;;;;;4.05;1.05;;;;;;;;;;5034543;28;20637;-44
2021/10/15 10:44:34;;;;;;;3.65;0.88;;;;;;;;;;5034509;28;20108;-45
2021/10/15 10:47:07;;;;;;;3.28;0.88;;;;;;;;;;5034528;28;20383;-49
2021/10/15 10:49:35;;;;;;;2.13;0.95;;;;;;;;;;5033821;28;20033;-50
2021/10/15 10:52:28;;;;;;;4.68;1.02;;;;;;;;;;5034100;28;20010;-51
2021/10/15 10:54:55;;;;;;;3.28;0.95;;;;;;;;;;5030888;28;20440;-45
2021/10/15 10:57:30;;;;;;;4.07;1.00;;;;;;;;;;5034108;28;20373;-48
2021/10/15 11:00:18;;;;;;;11.98;1.50;;;;;;;;;;5034199;28;20392;-52
2021/10/15 11:02:46;;;;;;;6.10;1.00;;;;;;;;;;5034443;28;20417;-46
2021/10/15 11:05:13;;;;;;;2.10;0.85;;;;;;;;;;5034063;28;20439;-50
2021/10/15 11:07:40;;;;;;;3.53;1.10;;;;;;;;;;5033736;28;20411;-51
2021/10/15 11:10:22;;;;;;;2.53;1.10;;;;;;;;;;5034143;28;20041;-53
2021/10/15 11:12:49;;;;;;;2.45;0.90;;;;;;;;;;5033591;28;20032;-53
2021/10/15 11:15:16;;;;;;;5.80;0.75;;;;;;;;;;5033128;28;20495;-54
2021/10/15 11:17:48;;;;;;;5.97;1.40;;;;;;;;;;5033064;28;20017;-49
2021/10/15 11:20:17;;;;;;;21.05;1.50;;;;;;;;;;5033499;28;20416;-66
2021/10/15 11:22:48;;;;;;;25.63;1.63;;;;;;;;;;5032526;28;20032;-50
2021/10/15 11:25:15;;;;;;;122.10;6.20;;;;;;;;;;5032443;28;20079;-56
2021/10/15 11:27:42;;;;;;;61.30;3.95;;;;;;;;;;5032745;28;20025;-59
2021/10/15 11:30:11;;;;;;;49.20;3.03;;;;;;;;;;5032940;28;20372;-55
2021/10/15 11:32:43;;;;;;;28.48;2.40;;;;;;;;;;5032165;28;20380;-56
2021/10/15 11:35:15;;;;;;;21.93;2.00;;;;;;;;;;5032550;28;20044;-58
2021/10/15 11:37:46;;;;;;;22.33;2.37;;;;;;;;;;5032584;28;20279;-53
2021/10/15 11:40:17;;;;;;;22.92;2.80;;;;;;;;;;5029897;28;20030;-46
2021/10/15 11:42:44;;;;;;;14.70;2.22;;;;;;;;;;5032630;28;20026;-47
2021/10/15 11:45:22;;;;;;;15.43;1.67;;;;;;;;;;5031895;28;20030;-52
2021/10/15 11:48:01;;;;;;;15.55;2.13;;;;;;;;;;5032837;28;20480;-50
2021/10/15 11:50:32;;;;;;;11.88;1.13;;;;;;;;;;5025583;28;20057;-64
2021/10/15 11:52:59;;;;;;;4.68;0.63;;;;;;;;;;5031357;28;20021;-58
2021/10/15 11:55:35;;;;;;;3.35;0.80;;;;;;;;;;5032408;28;20381;-49
2021/10/15 11:58:23;;;;;;;10.15;1.52;;;;;;;;;;5032515;28;20032;-48
2021/10/15 12:01:02;;;;;;;14.35;1.85;;;;;;;;;;5031594;28;20112;-46
2021/10/15 12:03:32;;;;;;;18.75;1.67;;;;;;;;;;5032058;28;20060;-51
2021/10/15 12:06:16;;;;;;;11.55;1.55;;;;;;;;;;5032382;28;20021;-50
2021/10/15 12:08:46;;;;;;;9.85;1.35;;;;;;;;;;5031836;28;20459;-46
2021/10/15 12:11:15;;;;;;;13.63;1.50;;;;;;;;;;5031399;28;20516;-51
2021/10/15 12:13:42;;;;;;;16.65;1.38;;;;;;;;;;5031133;28;20029;-46
2021/10/15 12:16:23;;;;;;;20.42;2.17;;;;;;;;;;5032032;28;20103;-47
2021/10/15 12:18:58;;;;;;;14.10;1.60;;;;;;;;;;5032378;28;20025;-52
2021/10/15 12:21:32;;;;;;;9.95;1.27;;;;;;;;;;5032191;28;20067;-51
2021/10/15 12:23:59;;;;;;;9.55;1.80;;;;;;;;;;5031166;28;20070;-49
2021/10/15 12:26:26;;;;;;;15.13;2.17;;;;;;;;;;5032067;28;20018;-47
2021/10/15 12:28:54;;;;;;;19.80;1.95;;;;;;;;;;5032161;28;20025;-49
2021/10/15 12:31:31;;;;;;;14.55;1.73;;;;;;;;;;5032118;28;20139;-50
2021/10/15 12:34:03;;;;;;;15.07;2.40;;;;;;;;;;5031057;28;20022;-58
2021/10/15 12:36:30;;;;;;;17.73;2.35;;;;;;;;;;5025925;28;20473;-56
2021/10/15 12:39:15;;;;;;;84.82;5.93;;;;;;;;;;5028291;28;20503;-60
2021/10/15 12:41:42;;;;;;;75.28;6.15;;;;;;;;;;5031468;28;20026;-58
2021/10/15 12:44:22;;;;;;;164.25;12.05;;;;;;;;;;5030452;28;20040;-58
2021/10/15 12:47:03;;;;;;;142.82;10.18;;;;;;;;;;5031995;28;20017;-53
2021/10/15 12:49:31;;;;;;;105.30;8.52;;;;;;;;;;5031878;28;20501;-56
2021/10/15 12:51:58;;;;;;;82.55;6.90;;;;;;;;;;5031870;28;20029;-53
2021/10/15 12:54:38;;;;;;;95.80;8.60;;;;;;;;;;5030159;28;20029;-60
2021/10/15 12:57:10;;;;;;;116.75;9.50;;;;;;;;;;5030551;28;20087;-53
2021/10/15 12:59:37;;;;;;;97.03;7.87;;;;;;;;;;5022231;28;20499;-58
2021/10/15 13:02:08;;;;;;;107.65;8.70;;;;;;;;;;5031339;28;20032;-52
2021/10/15 13:04:37;;;;;;;95.55;8.63;;;;;;;;;;5010087;28;20037;-49
2021/10/15 13:07:05;;;;;;;113.55;9.35;;;;;;;;;;5030659;28;20423;-52
2021/10/15 13:09:33;;;;;;;108.68;9.02;;;;;;;;;;5028803;28;20040;-45
2021/10/15 13:12:00;;;;;;;89.57;8.38;;;;;;;;;;5030127;28;20029;-51
2021/10/15 13:14:29;;;;;;;109.30;8.88;;;;;;;;;;5030327;28;20021;-58
2021/10/15 13:16:56;;;;;;;111.57;9.48;;;;;;;;;;5029874;28;20087;-55
2021/10/15 13:19:23;;;;;;;97.15;7.68;;;;;;;;;;5030477;28;20042;-53
2021/10/15 13:21:50;;;;;;;79.55;8.70;;;;;;;;;;5028942;28;20085;-50
2021/10/15 13:24:17;;;;;;;78.13;8.02;;;;;;;;;;5031036;28;20132;-55
2021/10/15 13:26:45;;;;;;;72.53;6.55;;;;;;;;;;5031432;28;20473;-56
2021/10/15 13:29:12;;;;;;;68.25;8.98;;;;;;;;;;5031129;28;20032;-50
2021/10/15 13:31:39;;;;;;;61.53;6.32;;;;;;;;;;5029311;28;20495;-60
2021/10/15 13:34:06;;;;;;;77.07;6.85;;;;;;;;;;5031046;28;20018;-57
2021/10/15 13:36:39;;;;;;;62.25;5.60;;;;;;;;;;5030785;28;20025;-58
2021/10/15 13:39:08;;;;;;;45.17;4.63;;;;;;;;;;5029922;28;20033;-59
2021/10/15 13:52:13;;;;;;;36.70;4.07;;;;;;;;;;5033072;28;20087;-47
2021/10/15 13:54:40;;;;;;;32.08;3.38;;;;;;;;;;5015538;28;20025;-50
2021/10/15 13:57:10;;;;;;;35.55;4.03;;;;;;;;;;5034423;28;20017;-56
2021/10/15 14:02:30;;;;;;;37.75;3.40;;;;;;;;;;5034430;28;20032;-56
2021/10/15 14:04:58;;;;;;;24.77;3.10;;;;;;;;;;5032646;28;20025;-60
2021/10/15 14:07:25;;;;;;;29.65;3.08;;;;;;;;;;5032971;28;20040;-48
2021/10/15 14:09:52;;;;;;;24.13;3.25;;;;;;;;;;5026467;28;20041;-46
2021/10/15 14:12:20;;;;;;;23.92;2.85;;;;;;;;;;5030417;28;20033;-49
2021/10/15 14:14:49;;;;;;;22.45;2.88;;;;;;;;;;5028144;28;20022;-50
2021/10/15 14:17:16;;;;;;;23.95;2.75;;;;;;;;;;5029696;28;20108;-49
2021/10/15 14:19:43;;;;;;;28.33;2.83;;;;;;;;;;5029334;28;20030;-49
2021/10/15 14:22:10;;;;;;;36.10;4.30;;;;;;;;;;5025497;28;20033;-48
2021/10/15 14:24:37;;;;;;;31.67;3.40;;;;;;;;;;5027164;28;20419;-51
2021/10/15 14:27:05;;;;;;;18.33;3.20;;;;;;;;;;5027933;28;20013;-53
2021/10/15 14:29:33;;;;;;;16.90;2.13;;;;;;;;;;5028382;28;20017;-55
2021/10/15 14:32:00;;;;;;;13.57;1.95;;;;;;;;;;5030436;28;20067;-56
2021/10/15 14:34:27;;;;;;;11.05;1.00;;;;;;;;;;5023751;28;20465;-51
2021/10/15 14:36:54;;;;;;;10.38;1.60;;;;;;;;;;5024326;28;20029;-50
2021/10/15 14:39:21;;;;;;;13.52;2.22;;;;;;;;;;5011628;28;20045;-51
2021/10/15 14:41:48;;;;;;;11.93;2.00;;;;;;;;;;5029754;28;20024;-53
2021/10/15 14:44:15;;;;;;;18.95;1.98;;;;;;;;;;5026014;28;20473;-48
2021/10/15 14:46:45;;;;;;;8.00;1.58;;;;;;;;;;5030664;28;20057;-52
2021/10/15 14:49:13;;;;;;;17.25;1.95;;;;;;;;;;5029963;28;20025;-50
2021/10/15 14:51:41;;;;;;;17.25;2.22;;;;;;;;;;5022423;28;20028;-61
2021/10/15 14:54:08;;;;;;;17.33;2.22;;;;;;;;;;5028686;28;20461;-55
2021/10/15 14:56:36;;;;;;;14.50;2.13;;;;;;;;;;5027131;28;20029;-49
2021/10/15 14:59:03;;;;;;;17.48;1.98;;;;;;;;;;5024180;28;20033;-52
2021/10/15 15:01:30;;;;;;;10.70;1.48;;;;;;;;;;5026194;28;20036;-57
2021/10/15 15:03:57;;;;;;;11.77;2.13;;;;;;;;;;5011718;28;20013;-54
2021/10/15 15:06:24;;;;;;;16.52;2.20;;;;;;;;;;5028672;28;20056;-53
2021/10/15 15:08:51;;;;;;;21.70;3.33;;;;;;;;;;5028756;28;20056;-57
2021/10/15 15:11:18;;;;;;;19.70;3.30;;;;;;;;;;5026341;28;20083;-53